createdAt,value
2017-12-04T00:00:44.460Z,101309.89
2017-12-04T00:03:12.041Z,101306.83
2017-12-04T00:05:39.687Z,101300.31
2017-12-04T00:08:07.276Z,101306.43
2017-12-04T00:10:34.856Z,101306.12
2017-12-04T00:13:02.468Z,101311.23
2017-12-04T00:15:30.048Z,101310.38
2017-12-04T00:17:57.675Z,101311.87
2017-12-04T00:20:25.264Z,101311.82
2017-12-04T00:22:52.860Z,101299.77
2017-12-04T00:25:20.468Z,101300.41
2017-12-04T00:27:48.055Z,101301.37
2017-12-04T00:30:15.719Z,101300.63
2017-12-04T00:32:43.315Z,101305.59
2017-12-04T00:35:11.322Z,101301.68
2017-12-04T00:37:38.930Z,101310.92
2017-12-04T00:40:06.856Z,101304.03
2017-12-04T00:42:34.496Z,101306.72
2017-12-04T00:45:02.189Z,101305.78
2017-12-04T00:47:29.765Z,101310.80
2017-12-04T00:49:57.376Z,101312.42
2017-12-04T00:52:24.956Z,101319.97
2017-12-04T00:54:52.583Z,101318.95
2017-12-04T00:57:20.160Z,101321.48
2017-12-04T00:59:47.757Z,101324.91
2017-12-04T01:02:15.384Z,101329.50
2017-12-04T01:04:42.979Z,101329.03
2017-12-04T01:07:10.947Z,101329.23
2017-12-04T01:09:38.553Z,101331.45
2017-12-04T01:12:06.148Z,101327.06
2017-12-04T01:14:33.775Z,101330.70
2017-12-04T01:17:01.394Z,101332.34
2017-12-04T01:19:29.360Z,101337.45
2017-12-04T01:21:56.932Z,101341.99
2017-12-04T01:24:24.515Z,101343.57
2017-12-04T01:26:52.149Z,101342.66
2017-12-04T01:29:20.015Z,101335.64
2017-12-04T01:31:47.980Z,101331.98
2017-12-04T01:34:15.561Z,101332.10
2017-12-04T01:36:43.130Z,101331.02
2017-12-04T01:39:11.073Z,101343.62
2017-12-04T01:41:38.644Z,101326.98
2017-12-04T01:44:06.252Z,101327.23
2017-12-04T01:46:33.832Z,101320.64
2017-12-04T01:49:01.421Z,101316.53
2017-12-04T01:51:29.036Z,101315.63
2017-12-04T01:53:56.647Z,101318.09
2017-12-04T01:56:24.267Z,101317.66
2017-12-04T01:58:51.859Z,101312.05
2017-12-04T02:01:19.738Z,101306.16
2017-12-04T02:03:47.347Z,101305.14
2017-12-04T02:06:14.935Z,101307.25
2017-12-04T02:08:42.551Z,101292.90
2017-12-04T02:11:10.124Z,101296.38
2017-12-04T02:13:37.747Z,101289.60
2017-12-04T02:16:05.354Z,101296.11
2017-12-04T02:18:33.277Z,101291.04
2017-12-04T02:21:00.900Z,101290.45
2017-12-04T02:23:28.492Z,101292.16
2017-12-04T02:25:56.067Z,101293.44
2017-12-04T02:28:23.679Z,101288.20
2017-12-04T02:30:51.272Z,101287.31
2017-12-04T02:33:18.911Z,101279.46
2017-12-04T02:35:46.492Z,101272.55
2017-12-04T02:38:14.072Z,101274.51
2017-12-04T02:40:41.701Z,101279.58
2017-12-04T02:43:09.304Z,101272.34
2017-12-04T02:45:36.921Z,101265.11
2017-12-04T02:48:04.493Z,101267.16
2017-12-04T02:50:32.086Z,101267.58
2017-12-04T02:52:59.703Z,101267.14
2017-12-04T02:55:27.293Z,101267.21
2017-12-04T02:57:54.933Z,101271.58
2017-12-04T03:00:22.527Z,101271.61
2017-12-04T03:02:50.106Z,101267.06
2017-12-04T03:05:18.057Z,101262.33
2017-12-04T03:07:45.640Z,101272.09
2017-12-04T03:10:13.277Z,101264.65
2017-12-04T03:12:40.861Z,101271.37
2017-12-04T03:15:08.820Z,101269.88
2017-12-04T03:17:36.448Z,101269.94
2017-12-04T03:20:04.341Z,101265.34
2017-12-04T03:22:31.938Z,101261.15
2017-12-04T03:24:59.568Z,101251.67
2017-12-04T03:27:27.175Z,101247.28
2017-12-04T03:29:54.797Z,101251.70
2017-12-04T03:32:22.454Z,101245.57
2017-12-04T03:34:50.038Z,101257.16
2017-12-04T03:37:17.625Z,101256.26
2017-12-04T03:39:45.541Z,101256.63
2017-12-04T03:42:13.131Z,101253.38
2017-12-04T03:44:40.746Z,101257.80
2017-12-04T03:47:08.347Z,101254.01
2017-12-04T03:49:35.974Z,101248.45
2017-12-04T03:52:03.858Z,101248.73
2017-12-04T03:54:31.731Z,101240.35
2017-12-04T03:56:59.369Z,101235.30
2017-12-04T03:59:27.258Z,101245.34
2017-12-04T04:01:54.852Z,101238.55
2017-12-04T04:04:22.795Z,101221.19
2017-12-04T04:06:50.395Z,101224.94
2017-12-04T04:09:18.014Z,101248.06
2017-12-04T04:11:45.609Z,101242.52
2017-12-04T04:14:13.180Z,101242.72
2017-12-04T04:16:41.118Z,101250.37
2017-12-04T04:19:08.704Z,101249.41
2017-12-04T04:21:36.331Z,101246.77
2017-12-04T04:24:04.200Z,101246.17
2017-12-04T04:26:31.792Z,101247.88
2017-12-04T04:28:59.732Z,101249.86
2017-12-04T04:31:27.319Z,101250.40
2017-12-04T04:33:55.264Z,101247.73
2017-12-04T04:36:22.860Z,101242.29
2017-12-04T04:38:50.446Z,101239.48
2017-12-04T04:41:18.158Z,101252.64
2017-12-04T04:43:45.740Z,101247.12
2017-12-04T04:46:13.371Z,101250.00
2017-12-04T04:48:41.236Z,101253.14
2017-12-04T04:51:08.856Z,101245.52
2017-12-04T04:53:36.490Z,101242.06
2017-12-04T04:56:04.083Z,101238.60
2017-12-04T04:58:31.697Z,101247.73
2017-12-04T05:00:59.303Z,101244.49
2017-12-04T05:03:26.900Z,101247.63
2017-12-04T05:05:54.510Z,101247.73
2017-12-04T05:08:22.144Z,101257.85
2017-12-04T05:10:49.807Z,101256.12
2017-12-04T05:13:17.391Z,101268.25
2017-12-04T05:15:45.004Z,101260.61
2017-12-04T05:18:12.614Z,101265.60
2017-12-04T05:20:40.227Z,101265.73
2017-12-04T05:23:07.880Z,101272.27
2017-12-04T05:25:35.449Z,101271.02
2017-12-04T05:28:03.030Z,101267.13
2017-12-04T05:30:30.718Z,101269.17
2017-12-04T05:32:58.311Z,101265.39
2017-12-04T05:35:25.959Z,101270.43
2017-12-04T05:37:53.540Z,101276.18
2017-12-04T05:40:21.142Z,101277.46
2017-12-04T05:42:49.109Z,101271.35
2017-12-04T05:45:16.981Z,101262.94
2017-12-04T05:47:44.615Z,101266.00
2017-12-04T05:50:12.240Z,101272.84
2017-12-04T05:52:40.179Z,101270.08
2017-12-04T05:55:08.152Z,101275.08
2017-12-04T05:57:35.737Z,101281.16
2017-12-04T06:00:03.376Z,101278.31
2017-12-04T06:02:30.957Z,101277.47
2017-12-04T06:04:58.600Z,101262.73
2017-12-04T06:07:26.200Z,101256.30
2017-12-04T06:09:53.797Z,101270.02
2017-12-04T06:12:21.787Z,101273.44
2017-12-04T06:14:49.377Z,101275.32
2017-12-04T06:17:16.952Z,101292.07
2017-12-04T06:19:44.592Z,101282.09
2017-12-04T06:22:12.177Z,101297.00
2017-12-04T06:24:39.852Z,101281.89
2017-12-04T06:27:07.760Z,101293.91
2017-12-04T06:29:35.383Z,101295.38
2017-12-04T06:32:03.000Z,101295.30
2017-12-04T06:34:30.599Z,101301.19
2017-12-04T06:36:58.232Z,101299.98
2017-12-04T06:39:25.860Z,101302.92
2017-12-04T06:41:53.844Z,101301.71
2017-12-04T06:44:21.711Z,101304.00
2017-12-04T06:46:49.293Z,101310.41
2017-12-04T06:49:16.915Z,101319.05
2017-12-04T06:51:44.501Z,101316.05
2017-12-04T06:54:12.105Z,101323.20
2017-12-04T06:56:39.725Z,101326.16
2017-12-04T06:59:07.324Z,101336.79
2017-12-04T07:01:34.947Z,101336.43
2017-12-04T07:04:02.564Z,101342.70
2017-12-04T07:06:30.149Z,101339.58
2017-12-04T07:08:57.775Z,101345.98
2017-12-04T07:11:25.365Z,101346.66
2017-12-04T07:13:53.267Z,101354.77
2017-12-04T07:16:20.888Z,101361.16
2017-12-04T07:18:48.630Z,101363.59
2017-12-04T07:21:16.249Z,101368.25
2017-12-04T07:23:43.875Z,101370.36
2017-12-04T07:26:11.512Z,101371.38
2017-12-04T07:28:39.094Z,101370.66
2017-12-04T07:31:06.663Z,101366.75
2017-12-04T07:33:34.293Z,101368.25
2017-12-04T07:36:01.875Z,101371.02
2017-12-04T07:38:29.496Z,101381.47
2017-12-04T07:40:57.349Z,101382.73
2017-12-04T07:43:24.966Z,101383.19
2017-12-04T07:45:52.573Z,101390.47
2017-12-04T07:48:20.188Z,101395.30
2017-12-04T07:50:47.826Z,101399.70
2017-12-04T07:53:15.674Z,101408.33
2017-12-04T07:55:43.272Z,101404.66
2017-12-04T07:58:10.892Z,101403.13
2017-12-04T08:00:38.492Z,101404.74
2017-12-04T08:03:06.140Z,101404.56
2017-12-04T08:05:33.757Z,101410.75
2017-12-04T08:08:01.360Z,101404.09
2017-12-04T08:10:28.975Z,101402.59
2017-12-04T08:12:56.565Z,101408.55
2017-12-04T08:15:26.145Z,101406.34
2017-12-04T08:17:53.747Z,101407.95
2017-12-04T08:20:21.390Z,101399.69
2017-12-04T08:22:49.018Z,101409.84
2017-12-04T08:25:16.645Z,101407.80
2017-12-04T08:27:44.289Z,101402.20
2017-12-04T08:30:11.893Z,101407.69
2017-12-04T08:32:39.493Z,101406.30
2017-12-04T08:35:07.115Z,101411.28
2017-12-04T08:37:34.772Z,101424.98
2017-12-04T08:40:03.272Z,101427.52
2017-12-04T08:42:30.896Z,101437.72
2017-12-04T08:44:58.476Z,101443.21
2017-12-04T08:47:26.114Z,101442.63
2017-12-04T08:49:54.068Z,101445.20
2017-12-04T08:52:21.752Z,101444.19
2017-12-04T08:54:49.385Z,101450.17
2017-12-04T08:57:17.006Z,101446.13
2017-12-04T08:59:44.631Z,101455.08
2017-12-04T09:02:12.524Z,101453.38
2017-12-04T09:04:40.791Z,101450.16
2017-12-04T09:07:08.368Z,101448.09
2017-12-04T09:09:36.116Z,101453.94
2017-12-04T09:12:03.723Z,101452.02
2017-12-04T09:14:31.304Z,101466.66
2017-12-04T09:16:58.983Z,101464.66
2017-12-04T09:19:26.564Z,101460.16
2017-12-04T09:21:54.147Z,101467.91
2017-12-04T09:24:21.766Z,101463.66
2017-12-04T09:26:49.349Z,101462.88
2017-12-04T09:29:16.992Z,101466.55
2017-12-04T09:31:45.476Z,101466.47
2017-12-04T09:34:13.066Z,101472.03
2017-12-04T09:36:40.699Z,101468.11
2017-12-04T09:39:08.287Z,101449.73
2017-12-04T09:41:35.940Z,101461.17
2017-12-04T09:44:03.579Z,101458.34
2017-12-04T09:46:31.156Z,101462.73
2017-12-04T09:48:58.794Z,101462.19
2017-12-04T09:51:26.464Z,101454.37
2017-12-04T09:53:54.118Z,101454.19
2017-12-04T09:56:21.688Z,101469.49
2017-12-04T09:58:49.340Z,101478.05
2017-12-04T10:01:17.010Z,101501.45
2017-12-04T10:03:44.595Z,101503.08
2017-12-04T10:06:12.227Z,101502.47
2017-12-04T10:08:44.502Z,101492.28
2017-12-04T10:11:12.078Z,101509.41
2017-12-04T10:13:40.027Z,101515.35
2017-12-04T10:16:07.668Z,101517.53
2017-12-04T10:18:35.268Z,101502.48
2017-12-04T10:21:02.849Z,101505.96
2017-12-04T10:23:30.476Z,101503.70
2017-12-04T10:25:58.049Z,101498.20
2017-12-04T10:28:25.683Z,101500.99
2017-12-04T10:30:53.298Z,101504.00
2017-12-04T10:33:21.140Z,101506.02
2017-12-04T10:35:48.775Z,101512.82
2017-12-04T10:38:16.594Z,101510.38
2017-12-04T10:40:44.190Z,101513.02
2017-12-04T10:43:12.407Z,101507.92
2017-12-04T10:45:40.024Z,101504.69
2017-12-04T10:48:07.689Z,101503.65
2017-12-04T10:50:35.451Z,101503.65
2017-12-04T10:53:03.069Z,101517.40
2017-12-04T10:55:30.726Z,101508.58
2017-12-04T10:57:58.316Z,101515.13
2017-12-04T11:00:30.146Z,101514.84
2017-12-04T11:02:57.731Z,101516.34
2017-12-04T11:05:25.778Z,101520.48
2017-12-04T11:07:53.364Z,101517.41
2017-12-04T11:10:20.943Z,101519.21
2017-12-04T11:12:48.562Z,101522.09
2017-12-04T11:15:16.149Z,101520.78
2017-12-04T11:17:43.792Z,101524.61
2017-12-04T11:20:11.653Z,101524.39
2017-12-04T11:22:39.231Z,101531.00
2017-12-04T11:25:06.855Z,101531.41
2017-12-04T11:27:34.745Z,101534.45
2017-12-04T11:30:02.361Z,101540.42
2017-12-04T11:32:30.523Z,101534.46
2017-12-04T11:34:58.117Z,101542.00
2017-12-04T11:37:25.723Z,101547.99
2017-12-04T11:39:53.296Z,101538.55
2017-12-04T11:42:20.915Z,101541.46
2017-12-04T11:44:48.847Z,101545.70
2017-12-04T11:47:16.429Z,101545.67
2017-12-04T11:49:44.054Z,101552.75
2017-12-04T11:52:11.999Z,101553.95
2017-12-04T11:54:39.763Z,101557.11
2017-12-04T11:57:07.349Z,101563.36
2017-12-04T11:59:35.206Z,101560.33
2017-12-04T12:02:02.831Z,101562.73
2017-12-04T12:04:30.713Z,101560.59
2017-12-04T12:06:58.585Z,101567.48
2017-12-04T12:09:26.448Z,101571.09
2017-12-04T12:11:54.449Z,101580.22
2017-12-04T12:14:22.147Z,101576.09
2017-12-04T12:16:49.752Z,101587.35
2017-12-04T12:19:17.372Z,101583.32
2017-12-04T12:21:45.286Z,101584.06
2017-12-04T12:24:13.256Z,101579.80
2017-12-04T12:26:40.871Z,101584.97
2017-12-04T12:29:08.525Z,101586.67
2017-12-04T12:31:36.167Z,101579.11
2017-12-04T12:34:03.752Z,101580.91
2017-12-04T12:36:31.368Z,101585.91
2017-12-04T12:38:58.992Z,101591.62
2017-12-04T12:41:26.597Z,101594.08
2017-12-04T12:43:54.227Z,101600.63
2017-12-04T12:46:21.812Z,101604.72
2017-12-04T12:48:49.400Z,101607.77
2017-12-04T12:51:17.023Z,101606.52
2017-12-04T12:53:44.900Z,101608.91
2017-12-04T12:56:12.537Z,101611.80
2017-12-04T12:58:40.124Z,101608.99
2017-12-04T13:01:07.743Z,101612.23
2017-12-04T13:03:35.353Z,101613.91
2017-12-04T13:06:02.948Z,101612.13
2017-12-04T13:08:30.573Z,101609.89
2017-12-04T13:10:58.192Z,101618.40
2017-12-04T13:13:25.789Z,101618.32
2017-12-04T13:15:53.393Z,101623.14
2017-12-04T13:18:21.010Z,101624.44
2017-12-04T13:20:48.658Z,101633.70
2017-12-04T13:23:16.320Z,101632.20
2017-12-04T13:25:43.896Z,101629.74
2017-12-04T13:28:11.747Z,101624.17
2017-12-04T13:30:41.287Z,101633.97
2017-12-04T13:33:20.687Z,101631.65
2017-12-04T13:36:00.204Z,101636.59
2017-12-04T13:38:28.135Z,101640.54
2017-12-04T13:40:55.720Z,101643.78
2017-12-04T13:43:23.296Z,101648.48
2017-12-04T13:45:50.937Z,101664.91
2017-12-04T13:48:18.517Z,101655.41
2017-12-04T13:50:46.156Z,101662.83
2017-12-04T13:53:13.745Z,101670.30
2017-12-04T13:55:41.336Z,101672.84
2017-12-04T13:58:08.956Z,101669.67
2017-12-04T14:00:36.628Z,101669.88
2017-12-04T14:03:04.298Z,101679.74
2017-12-04T14:05:31.888Z,101683.31
2017-12-04T14:07:59.469Z,101694.81
2017-12-04T14:10:27.093Z,101689.57
2017-12-04T14:12:54.669Z,101695.23
2017-12-04T14:15:22.288Z,101691.97
2017-12-04T14:17:50.229Z,101700.45
2017-12-04T14:20:17.816Z,101699.13
2017-12-04T14:22:45.441Z,101703.37
2017-12-04T14:25:13.019Z,101702.28
2017-12-04T14:27:40.695Z,101711.25
2017-12-04T14:30:08.321Z,101710.84
2017-12-04T14:32:35.915Z,101708.13
2017-12-04T14:35:03.561Z,101711.13
2017-12-04T14:37:31.425Z,101714.58
2017-12-04T14:39:59.092Z,101725.11
2017-12-04T14:42:26.690Z,101724.86
2017-12-04T14:44:54.301Z,101732.55
2017-12-04T14:47:21.931Z,101736.88
2017-12-04T14:49:49.549Z,101740.96
2017-12-04T14:52:17.235Z,101743.97
2017-12-04T14:54:44.843Z,101743.39
2017-12-04T14:57:12.785Z,101751.66
2017-12-04T14:59:40.816Z,101752.88
2017-12-04T15:02:08.446Z,101757.27
2017-12-04T15:04:36.122Z,101760.19
2017-12-04T15:07:03.711Z,101762.52
2017-12-04T15:09:31.563Z,101764.16
2017-12-04T15:11:59.171Z,101771.12
2017-12-04T15:14:26.773Z,101766.91
2017-12-04T15:16:54.424Z,101771.08
2017-12-04T15:19:22.024Z,101781.94
2017-12-04T15:21:50.179Z,101790.91
2017-12-04T15:24:17.810Z,101795.35
2017-12-04T15:26:45.414Z,101787.64
2017-12-04T15:29:13.051Z,101790.92
2017-12-04T15:31:40.641Z,101795.27
2017-12-04T15:34:08.302Z,101795.25
2017-12-04T15:36:35.973Z,101804.98
2017-12-04T15:39:03.701Z,101803.76
2017-12-04T15:41:31.351Z,101811.00
2017-12-04T15:43:59.027Z,101803.45
2017-12-04T15:46:26.669Z,101806.19
2017-12-04T15:48:54.331Z,101814.23
2017-12-04T15:51:21.937Z,101815.23
2017-12-04T15:53:49.557Z,101821.59
2017-12-04T15:56:17.155Z,101823.10
2017-12-04T15:58:44.822Z,101830.34
2017-12-04T16:01:12.437Z,101828.61
2017-12-04T16:03:40.353Z,101828.14
2017-12-04T16:06:07.965Z,101830.72
2017-12-04T16:08:35.577Z,101836.52
2017-12-04T16:11:03.442Z,101835.66
2017-12-04T16:13:31.056Z,101840.57
2017-12-04T16:15:58.771Z,101840.09
2017-12-04T16:18:26.398Z,101844.13
2017-12-04T16:20:54.053Z,101848.57
2017-12-04T16:23:21.961Z,101852.54
2017-12-04T16:25:49.570Z,101850.84
2017-12-04T16:28:17.143Z,101855.34
2017-12-04T16:30:44.727Z,101862.46
2017-12-04T16:33:12.351Z,101858.23
2017-12-04T16:35:39.934Z,101865.95
2017-12-04T16:38:07.787Z,101870.52
2017-12-04T16:40:35.421Z,101869.30
2017-12-04T16:43:03.064Z,101874.37
2017-12-04T16:45:30.677Z,101877.92
2017-12-04T16:47:58.339Z,101882.08
2017-12-04T16:50:26.364Z,101883.12
2017-12-04T16:52:53.968Z,101884.61
2017-12-04T16:55:21.569Z,101888.05
2017-12-04T16:57:49.309Z,101889.69
2017-12-04T17:00:16.904Z,101901.89
2017-12-04T17:02:44.786Z,101904.37
2017-12-04T17:05:12.388Z,101906.76
2017-12-04T17:07:39.990Z,101907.02
2017-12-04T17:10:07.605Z,101912.12
2017-12-04T17:12:35.228Z,101914.91
2017-12-04T17:15:02.856Z,101929.18
2017-12-04T17:17:30.866Z,101935.69
2017-12-04T17:19:58.441Z,101936.11
2017-12-04T17:22:26.388Z,101939.14
2017-12-04T17:24:53.975Z,101939.61
2017-12-04T17:27:21.551Z,101943.72
2017-12-04T17:29:49.164Z,101950.91
2017-12-04T17:32:16.748Z,101951.66
2017-12-04T17:34:44.374Z,101951.18
2017-12-04T17:37:11.992Z,101956.10
2017-12-04T17:39:39.582Z,101954.51
2017-12-04T17:42:07.199Z,101961.41
2017-12-04T17:44:34.786Z,101963.62
2017-12-04T17:47:02.421Z,101972.02
2017-12-04T17:49:30.007Z,101969.16
2017-12-04T17:51:57.585Z,101976.28
2017-12-04T17:54:25.201Z,101970.52
2017-12-04T17:56:53.079Z,101981.56
2017-12-04T17:59:23.237Z,101978.50
2017-12-04T18:01:50.929Z,101971.70
2017-12-04T18:04:18.517Z,101976.08
2017-12-04T18:06:46.185Z,101979.67
2017-12-04T18:09:13.780Z,101979.34
2017-12-04T18:11:41.396Z,101987.73
2017-12-04T18:14:08.980Z,101989.19
2017-12-04T18:16:36.552Z,101992.45
2017-12-04T18:19:04.188Z,101995.47
2017-12-04T18:21:31.776Z,101990.23
2017-12-04T18:23:59.407Z,101993.25
2017-12-04T18:26:27.273Z,101986.66
2017-12-04T18:28:54.935Z,101988.45
2017-12-04T18:31:22.549Z,101989.81
2017-12-04T18:33:50.148Z,101993.63
2017-12-04T18:36:17.813Z,101995.47
2017-12-04T18:38:45.401Z,101996.19
2017-12-04T18:41:13.003Z,101998.30
2017-12-04T18:43:40.618Z,101994.15
2017-12-04T18:46:08.224Z,101993.73
2017-12-04T18:48:35.837Z,101992.98
2017-12-04T18:51:03.408Z,101999.58
2017-12-04T18:53:30.997Z,101993.40
2017-12-04T18:55:58.924Z,101996.04
2017-12-04T18:58:26.509Z,101995.94
2017-12-04T19:00:54.145Z,102001.38
2017-12-04T19:03:21.810Z,102005.38
2017-12-04T19:05:49.381Z,102001.70
2017-12-04T19:08:17.008Z,102001.12
2017-12-04T19:10:44.606Z,101998.48
2017-12-04T19:13:12.233Z,102004.34
2017-12-04T19:15:39.828Z,102008.30
2017-12-04T19:18:07.435Z,102010.66
2017-12-04T19:20:35.065Z,102010.14
2017-12-04T19:23:02.655Z,102012.50
2017-12-04T19:25:30.285Z,102011.46
2017-12-04T19:27:57.874Z,102016.92
2017-12-04T19:30:25.459Z,102012.83
2017-12-04T19:32:53.136Z,102011.98
2017-12-04T19:35:20.729Z,102014.80
2017-12-04T19:37:48.786Z,102013.77
2017-12-04T19:40:16.429Z,102016.92
2017-12-04T19:42:44.032Z,102024.59
2017-12-04T19:45:11.637Z,102017.06
2017-12-04T19:47:39.533Z,102020.52
2017-12-04T19:50:07.276Z,102016.41
2017-12-04T19:52:35.000Z,102024.47
2017-12-04T19:55:02.714Z,102021.87
2017-12-04T19:57:30.472Z,102021.45
2017-12-04T19:59:58.085Z,102020.03
2017-12-04T20:02:26.258Z,102016.95
2017-12-04T20:04:54.064Z,102021.45
2017-12-04T20:07:21.650Z,102031.80
2017-12-04T20:09:49.286Z,102034.20
2017-12-04T20:12:16.864Z,102039.50
2017-12-04T20:14:44.507Z,102037.23
2017-12-04T20:17:12.196Z,102041.53
2017-12-04T20:19:40.194Z,102040.57
2017-12-04T20:22:07.823Z,102038.78
2017-12-04T20:24:35.416Z,102050.02
2017-12-04T20:27:03.046Z,102050.80
2017-12-04T20:29:30.660Z,102049.48
2017-12-04T20:31:58.271Z,102053.30
2017-12-04T20:34:25.915Z,102052.69
2017-12-04T20:36:53.508Z,102054.38
2017-12-04T20:39:21.140Z,102060.46
2017-12-04T20:41:48.737Z,102060.97
2017-12-04T20:44:16.355Z,102070.20
2017-12-04T20:46:44.022Z,102071.86
2017-12-04T20:49:11.693Z,102069.59
2017-12-04T20:51:39.394Z,102074.88
2017-12-04T20:54:07.017Z,102069.36
2017-12-04T20:56:34.852Z,102076.66
2017-12-04T20:59:02.460Z,102072.34
2017-12-04T21:01:30.083Z,102076.67
2017-12-04T21:03:57.731Z,102072.83
2017-12-04T21:06:25.324Z,102073.56
2017-12-04T21:09:04.856Z,102079.42
2017-12-04T21:11:44.182Z,102080.35
2017-12-04T21:17:25.900Z,102076.44
2017-12-04T21:19:53.539Z,102084.19
2017-12-04T21:22:21.139Z,102076.69
2017-12-04T21:24:48.820Z,102081.50
2017-12-04T21:27:16.445Z,102083.73
2017-12-04T21:29:45.100Z,102093.67
2017-12-04T21:32:12.728Z,102092.45
2017-12-04T21:34:40.364Z,102092.73
2017-12-04T21:37:07.953Z,102096.27
2017-12-04T21:39:35.645Z,102102.39
2017-12-04T21:42:03.467Z,102101.54
2017-12-04T21:44:31.384Z,102101.78
2017-12-04T21:46:58.964Z,102102.72
2017-12-04T21:49:26.545Z,102108.96
2017-12-04T21:51:54.169Z,102108.78
2017-12-04T21:54:22.050Z,102110.77
2017-12-04T21:56:49.680Z,102113.84
2017-12-04T21:59:17.256Z,102107.63
2017-12-04T22:01:44.847Z,102117.14
2017-12-04T22:04:12.456Z,102124.63
2017-12-04T22:06:40.229Z,102119.22
2017-12-04T22:09:07.852Z,102117.63
2017-12-04T22:11:35.484Z,102117.11
2017-12-04T22:14:03.213Z,102122.20
2017-12-04T22:16:31.427Z,102118.31
2017-12-04T22:18:59.029Z,102120.20
2017-12-04T22:21:26.676Z,102119.35
2017-12-04T22:23:54.283Z,102120.63
2017-12-04T22:26:22.320Z,102127.84
2017-12-04T22:28:49.916Z,102128.66
2017-12-04T22:31:17.520Z,102127.25
2017-12-04T22:33:45.135Z,102121.95
2017-12-04T22:36:12.827Z,102121.71
2017-12-04T22:38:40.438Z,102125.34
2017-12-04T22:41:08.063Z,102126.97
2017-12-04T22:43:35.913Z,102126.73
2017-12-04T22:46:03.596Z,102127.39
2017-12-04T22:48:31.176Z,102131.94
2017-12-04T22:50:58.802Z,102135.55
2017-12-04T22:53:26.392Z,102134.86
2017-12-04T22:55:54.389Z,102130.73
2017-12-04T22:58:22.009Z,102132.22
2017-12-04T23:00:49.589Z,102132.53
2017-12-04T23:03:17.214Z,102135.36
2017-12-04T23:05:45.197Z,102135.31
2017-12-04T23:08:13.063Z,102140.08
2017-12-04T23:10:40.647Z,102143.47
2017-12-04T23:13:08.282Z,102138.33
2017-12-04T23:15:35.912Z,102143.70
2017-12-04T23:18:03.778Z,102135.36
2017-12-04T23:20:31.376Z,102135.71
2017-12-04T23:22:58.963Z,102134.02
2017-12-04T23:25:26.605Z,102131.19
2017-12-04T23:27:54.205Z,102144.43
2017-12-04T23:30:22.925Z,102142.08
2017-12-04T23:32:50.503Z,102137.95
2017-12-04T23:35:18.109Z,102145.34
2017-12-04T23:37:45.728Z,102144.41
2017-12-04T23:40:13.335Z,102145.31
2017-12-04T23:42:40.988Z,102148.02
2017-12-04T23:45:08.574Z,102145.08
2017-12-04T23:47:36.170Z,102146.00
2017-12-04T23:50:03.797Z,102148.75
2017-12-04T23:52:31.408Z,102140.16
2017-12-04T23:54:59.051Z,102147.02
2017-12-04T23:57:26.936Z,102144.80
2017-12-04T23:59:54.524Z,102145.45
